createdAt,value
2018-04-22T00:00:03.191Z,101341.78
2018-04-22T00:02:31.532Z,101337.59
2018-04-22T00:04:59.852Z,101332.02
2018-04-22T00:07:28.195Z,101339.72
2018-04-22T00:09:56.512Z,101339.20
2018-04-22T00:12:24.860Z,101332.13
2018-04-22T00:14:53.185Z,101322.56
2018-04-22T00:17:21.524Z,101316.94
2018-04-22T00:19:49.896Z,101321.66
2018-04-22T00:22:18.193Z,101311.84
2018-04-22T00:24:46.511Z,101314.18
2018-04-22T00:27:14.849Z,101307.45
2018-04-22T00:29:43.173Z,101305.28
2018-04-22T00:32:11.517Z,101308.20
2018-04-22T00:34:39.852Z,101306.09
2018-04-22T00:37:08.184Z,101306.86
2018-04-22T00:39:36.504Z,101295.77
2018-04-22T00:42:04.853Z,101294.23
2018-04-22T00:44:33.181Z,101289.55
2018-04-22T00:47:01.528Z,101285.52
2018-04-22T00:49:29.865Z,101285.31
2018-04-22T00:51:58.205Z,101289.23
2018-04-22T00:54:26.535Z,101282.91
2018-04-22T00:56:54.893Z,101277.83
2018-04-22T00:59:23.233Z,101269.19
2018-04-22T01:01:51.581Z,101266.25
2018-04-22T01:04:19.910Z,101262.17
2018-04-22T01:06:48.261Z,101264.77
2018-04-22T01:09:16.601Z,101255.97
2018-04-22T01:11:44.957Z,101264.17
2018-04-22T01:14:13.289Z,101259.03
2018-04-22T01:16:41.636Z,101259.69
2018-04-22T01:19:09.981Z,101258.59
2018-04-22T01:21:38.328Z,101259.50
2018-04-22T01:24:06.661Z,101259.99
2018-04-22T01:26:34.993Z,101253.66
2018-04-22T01:29:03.344Z,101256.95
2018-04-22T01:31:31.677Z,101252.86
2018-04-22T01:34:00.025Z,101247.47
2018-04-22T01:36:28.353Z,101246.53
2018-04-22T01:38:56.701Z,101238.88
2018-04-22T01:41:25.038Z,101237.89
2018-04-22T01:43:53.388Z,101227.57
2018-04-22T01:46:21.727Z,101228.43
2018-04-22T01:48:50.082Z,101220.23
2018-04-22T01:51:18.413Z,101217.86
2018-04-22T01:53:46.774Z,101222.79
2018-04-22T01:56:15.114Z,101215.72
2018-04-22T01:58:43.472Z,101213.89
2018-04-22T02:01:11.804Z,101204.72
2018-04-22T02:03:40.149Z,101200.85
2018-04-22T02:06:08.492Z,101199.93
2018-04-22T02:08:36.837Z,101202.08
2018-04-22T02:11:05.168Z,101205.38
2018-04-22T02:13:33.529Z,101213.09
2018-04-22T02:16:01.865Z,101208.73
2018-04-22T02:18:30.220Z,101205.50
2018-04-22T02:20:58.553Z,101201.64
2018-04-22T02:23:26.907Z,101199.37
2018-04-22T02:25:55.231Z,101191.53
2018-04-22T02:28:23.588Z,101187.67
2018-04-22T02:30:51.918Z,101183.44
2018-04-22T02:33:20.265Z,101182.08
2018-04-22T02:35:48.592Z,101182.48
2018-04-22T02:38:16.943Z,101179.31
2018-04-22T02:40:45.277Z,101181.94
2018-04-22T02:43:13.625Z,101174.18
2018-04-22T02:45:41.953Z,101176.33
2018-04-22T02:48:10.311Z,101176.44
2018-04-22T02:50:38.652Z,101173.50
2018-04-22T02:53:07.003Z,101181.52
2018-04-22T02:55:35.328Z,101182.70
2018-04-22T02:58:03.686Z,101174.86
2018-04-22T03:00:32.014Z,101173.52
2018-04-22T03:03:00.361Z,101166.28
2018-04-22T03:05:28.685Z,101163.47
2018-04-22T03:07:57.045Z,101163.28
2018-04-22T03:10:25.364Z,101157.11
2018-04-22T03:12:53.711Z,101160.67
2018-04-22T03:15:22.042Z,101158.91
2018-04-22T03:17:50.392Z,101155.03
2018-04-22T03:20:18.716Z,101146.97
2018-04-22T03:22:47.067Z,101147.89
2018-04-22T03:25:15.392Z,101142.87
2018-04-22T03:27:43.721Z,101138.88
2018-04-22T03:30:12.073Z,101136.14
2018-04-22T03:32:40.404Z,101131.14
2018-04-22T03:35:08.760Z,101131.39
2018-04-22T03:37:37.984Z,101130.77
2018-04-22T03:40:06.333Z,101122.33
2018-04-22T03:42:34.701Z,101120.20
2018-04-22T03:45:03.007Z,101127.95
2018-04-22T03:47:31.334Z,101125.39
2018-04-22T03:49:59.694Z,101120.39
2018-04-22T03:52:28.080Z,101118.73
2018-04-22T03:54:56.442Z,101120.73
2018-04-22T03:57:24.773Z,101112.02
2018-04-22T03:59:53.129Z,101109.75
2018-04-22T04:02:21.471Z,101104.50
2018-04-22T04:04:49.833Z,101105.34
2018-04-22T04:07:18.170Z,101097.72
2018-04-22T04:09:46.521Z,101097.95
2018-04-22T04:12:14.844Z,101098.44
2018-04-22T04:14:43.201Z,101098.80
2018-04-22T04:17:11.528Z,101109.55
2018-04-22T04:19:51.569Z,101107.00
2018-04-22T04:22:31.684Z,101109.52
2018-04-22T04:28:02.889Z,101105.97
2018-04-22T04:30:31.232Z,101107.66
2018-04-22T04:32:59.565Z,101106.70
2018-04-22T04:35:27.913Z,101104.05
2018-04-22T04:37:56.245Z,101100.27
2018-04-22T04:40:24.593Z,101099.53
2018-04-22T04:42:52.948Z,101093.05
2018-04-22T04:45:21.296Z,101094.71
2018-04-22T04:47:49.633Z,101085.86
2018-04-22T04:50:17.990Z,101087.44
2018-04-22T04:52:46.321Z,101083.22
2018-04-22T04:55:14.675Z,101080.23
2018-04-22T04:57:42.999Z,101082.54
2018-04-22T05:00:11.370Z,101073.99
2018-04-22T05:02:39.707Z,101063.87
2018-04-22T05:05:08.061Z,101063.43
2018-04-22T05:07:36.389Z,101062.22
2018-04-22T05:10:04.746Z,101060.39
2018-04-22T05:12:33.072Z,101058.30
2018-04-22T05:15:01.427Z,101066.36
2018-04-22T05:17:29.756Z,101065.31
2018-04-22T05:19:58.113Z,101066.81
2018-04-22T05:22:26.445Z,101060.14
2018-04-22T05:24:54.801Z,101058.62
2018-04-22T05:27:23.142Z,101061.33
2018-04-22T05:29:51.506Z,101063.03
2018-04-22T05:32:19.844Z,101056.69
2018-04-22T05:34:48.197Z,101051.36
2018-04-22T05:37:16.533Z,101058.93
2018-04-22T05:39:44.892Z,101054.39
2018-04-22T05:42:13.226Z,101048.16
2018-04-22T05:44:41.574Z,101045.81
2018-04-22T05:47:09.914Z,101043.36
2018-04-22T05:49:38.276Z,101039.31
2018-04-22T05:52:06.604Z,101035.28
2018-04-22T05:54:34.971Z,101024.23
2018-04-22T05:57:03.359Z,101024.98
2018-04-22T05:59:31.717Z,101029.77
2018-04-22T06:02:00.053Z,101029.89
2018-04-22T06:04:28.410Z,101027.13
2018-04-22T06:06:56.751Z,101017.86
2018-04-22T06:09:25.104Z,101011.43
2018-04-22T06:11:53.448Z,101018.32
2018-04-22T06:14:21.825Z,101014.31
2018-04-22T06:16:50.149Z,101014.11
2018-04-22T06:19:18.485Z,101013.88
2018-04-22T06:21:46.829Z,101006.83
2018-04-22T06:24:15.157Z,101001.04
2018-04-22T06:26:43.514Z,101000.56
2018-04-22T06:29:11.842Z,100993.92
2018-04-22T06:31:40.190Z,100989.19
2018-04-22T06:34:08.525Z,100987.33
2018-04-22T06:36:36.877Z,100996.70
2018-04-22T06:39:05.238Z,100991.07
2018-04-22T06:41:33.584Z,100985.53
2018-04-22T06:44:01.920Z,100990.95
2018-04-22T06:46:30.268Z,100990.38
2018-04-22T06:48:58.612Z,100990.75
2018-04-22T06:51:26.965Z,100982.44
2018-04-22T06:53:55.294Z,100983.71
2018-04-22T06:56:23.650Z,100990.94
2018-04-22T06:58:52.058Z,100973.47
2018-04-22T07:01:20.340Z,100972.53
2018-04-22T07:03:48.665Z,100972.73
2018-04-22T07:06:17.010Z,100967.16
2018-04-22T07:08:45.338Z,100969.37
2018-04-22T07:11:13.688Z,100960.20
2018-04-22T07:13:42.024Z,100958.66
2018-04-22T07:16:10.374Z,100963.05
2018-04-22T07:18:38.705Z,100963.21
2018-04-22T07:21:07.060Z,100961.39
2018-04-22T07:23:35.390Z,100951.48
2018-04-22T07:26:03.736Z,100953.92
2018-04-22T07:28:32.069Z,100960.86
2018-04-22T07:31:00.421Z,100952.55
2018-04-22T07:33:28.752Z,100948.52
2018-04-22T07:35:57.111Z,100955.77
2018-04-22T07:38:25.442Z,100952.00
2018-04-22T07:40:53.793Z,100951.23
2018-04-22T07:43:22.125Z,100945.57
2018-04-22T07:45:50.473Z,100947.73
2018-04-22T07:48:18.810Z,100936.41
2018-04-22T07:50:47.160Z,100930.27
2018-04-22T07:53:15.489Z,100918.56
2018-04-22T07:55:43.845Z,100912.52
2018-04-22T07:58:12.172Z,100913.24
2018-04-22T08:00:40.528Z,100909.31
2018-04-22T08:03:08.856Z,100913.48
2018-04-22T08:05:37.210Z,100912.21
2018-04-22T08:08:05.545Z,100914.24
2018-04-22T08:10:33.892Z,100910.67
2018-04-22T08:13:02.226Z,100907.09
2018-04-22T08:15:30.576Z,100910.38
2018-04-22T08:17:58.938Z,100905.26
2018-04-22T08:20:27.272Z,100897.94
2018-04-22T08:22:55.628Z,100905.37
2018-04-22T08:25:23.964Z,100903.09
2018-04-22T08:27:52.313Z,100907.68
2018-04-22T08:30:20.645Z,100902.91
2018-04-22T08:32:48.996Z,100903.59
2018-04-22T08:35:17.325Z,100903.81
2018-04-22T08:37:45.683Z,100896.05
2018-04-22T08:40:14.009Z,100887.27
2018-04-22T08:42:42.365Z,100885.09
2018-04-22T08:45:10.700Z,100881.98
2018-04-22T08:47:39.060Z,100877.63
2018-04-22T08:50:07.393Z,100875.86
2018-04-22T08:52:35.744Z,100874.49
2018-04-22T08:55:04.081Z,100876.95
2018-04-22T08:57:33.412Z,100866.33
2018-04-22T09:00:01.753Z,100868.69
2018-04-22T09:04:16.346Z,100859.77
2018-04-22T09:06:45.651Z,100853.81
2018-04-22T09:09:14.301Z,100856.70
2018-04-22T09:11:42.658Z,100855.34
2018-04-22T09:14:10.997Z,100858.30
2018-04-22T09:16:39.356Z,100851.76
2018-04-22T09:19:07.689Z,100852.15
2018-04-22T09:21:36.044Z,100840.16
2018-04-22T09:24:04.381Z,100851.73
2018-04-22T09:26:32.736Z,100850.59
2018-04-22T09:29:01.065Z,100850.23
2018-04-22T09:31:29.412Z,100850.34
2018-04-22T09:33:57.772Z,100844.55
2018-04-22T09:36:26.131Z,100842.34
2018-04-22T09:38:54.460Z,100840.00
2018-04-22T09:41:22.820Z,100838.10
2018-04-22T09:43:51.157Z,100834.86
2018-04-22T09:46:19.493Z,100829.80
2018-04-22T09:48:47.892Z,100823.17
2018-04-22T09:51:16.232Z,100826.19
2018-04-22T09:53:44.592Z,100813.36
2018-04-22T09:56:12.928Z,100804.38
2018-04-22T09:58:41.283Z,100804.70
2018-04-22T10:01:09.625Z,100795.79
2018-04-22T10:03:37.985Z,100787.78
2018-04-22T10:06:06.324Z,100786.45
2018-04-22T10:08:34.675Z,100785.14
2018-04-22T10:11:03.009Z,100780.27
2018-04-22T10:13:31.364Z,100782.06
2018-04-22T10:15:59.701Z,100778.09
2018-04-22T10:18:28.064Z,100774.86
2018-04-22T10:20:56.391Z,100775.28
2018-04-22T10:23:25.432Z,100773.90
2018-04-22T10:25:53.769Z,100768.35
2018-04-22T10:28:22.124Z,100755.72
2018-04-22T10:30:50.460Z,100758.87
2018-04-22T10:33:18.820Z,100750.67
2018-04-22T10:35:47.156Z,100749.06
2018-04-22T10:38:15.517Z,100744.66
2018-04-22T10:40:43.854Z,100732.00
2018-04-22T10:43:12.209Z,100729.78
2018-04-22T10:45:40.544Z,100731.41
2018-04-22T10:48:09.841Z,100727.58
2018-04-22T10:50:38.171Z,100721.25
2018-04-22T10:53:06.532Z,100712.20
2018-04-22T10:55:34.869Z,100712.75
2018-04-22T10:58:03.305Z,100709.70
2018-04-22T11:00:31.560Z,100716.94
2018-04-22T11:02:59.924Z,100712.28
2018-04-22T11:05:28.256Z,100711.61
2018-04-22T11:07:56.608Z,100708.06
2018-04-22T11:10:24.952Z,100696.64
2018-04-22T11:12:53.308Z,100695.05
2018-04-22T11:15:21.645Z,100687.63
2018-04-22T11:17:50.240Z,100683.11
2018-04-22T11:20:18.578Z,100685.62
2018-04-22T11:22:46.972Z,100675.25
2018-04-22T11:25:15.296Z,100673.80
2018-04-22T11:27:44.593Z,100666.30
2018-04-22T11:30:12.948Z,100677.35
2018-04-22T11:32:41.319Z,100675.04
2018-04-22T11:35:09.689Z,100668.23
2018-04-22T11:37:39.273Z,100656.52
2018-04-22T11:40:07.611Z,100661.66
2018-04-22T11:42:36.032Z,100650.27
2018-04-22T11:45:04.353Z,100647.11
2018-04-22T11:47:32.716Z,100641.74
2018-04-22T11:50:01.140Z,100634.78
2018-04-22T11:52:29.476Z,100635.57
2018-04-22T11:54:57.836Z,100627.30
2018-04-22T11:57:26.173Z,100630.37
2018-04-22T11:59:54.574Z,100623.83
2018-04-22T12:02:22.906Z,100623.89
2018-04-22T12:04:51.225Z,100618.88
2018-04-22T12:07:20.548Z,100616.94
2018-04-22T12:09:48.985Z,100622.14
2018-04-22T12:12:17.316Z,100617.59
2018-04-22T12:14:45.711Z,100617.02
2018-04-22T12:17:14.053Z,100611.83
2018-04-22T12:19:43.373Z,100612.66
2018-04-22T12:22:11.709Z,100612.53
2018-04-22T12:24:40.072Z,100610.67
2018-04-22T12:27:09.304Z,100611.83
2018-04-22T12:29:37.660Z,100600.33
2018-04-22T12:32:05.996Z,100594.23
2018-04-22T12:34:34.352Z,100590.53
2018-04-22T12:37:02.691Z,100585.20
2018-04-22T12:39:31.056Z,100582.48
2018-04-22T12:41:59.387Z,100579.80
2018-04-22T12:44:27.754Z,100577.34
2018-04-22T12:46:57.046Z,100578.55
2018-04-22T12:49:25.404Z,100570.79
2018-04-22T12:51:53.740Z,100572.84
2018-04-22T12:54:22.103Z,100568.86
2018-04-22T12:56:50.444Z,100578.00
2018-04-22T12:59:19.387Z,100570.85
2018-04-22T13:01:47.676Z,100572.93
2018-04-22T13:04:16.100Z,100564.33
2018-04-22T13:06:44.452Z,100565.63
2018-04-22T13:09:12.813Z,100560.27
2018-04-22T13:11:41.144Z,100553.59
2018-04-22T13:14:09.521Z,100545.52
2018-04-22T13:16:39.065Z,100540.45
2018-04-22T13:19:08.100Z,100535.34
2018-04-22T13:21:36.457Z,100533.02
2018-04-22T13:24:04.820Z,100522.56
2018-04-22T13:26:33.157Z,100517.69
2018-04-22T13:29:01.516Z,100520.53
2018-04-22T13:31:29.856Z,100511.55
2018-04-22T13:33:58.434Z,100506.91
2018-04-22T13:36:26.780Z,100506.63
2018-04-22T13:38:56.185Z,100499.78
2018-04-22T13:41:24.476Z,100499.23
2018-04-22T13:43:52.841Z,100493.62
2018-04-22T13:46:21.177Z,100490.87
2018-04-22T13:48:49.541Z,100480.14
2018-04-22T13:51:17.888Z,100476.02
2018-04-22T13:53:46.240Z,100474.28
2018-04-22T13:56:14.597Z,100472.67
2018-04-22T13:58:43.656Z,100465.34
2018-04-22T14:01:12.017Z,100464.02
2018-04-22T14:03:40.344Z,100455.09
2018-04-22T14:06:08.714Z,100449.70
2018-04-22T14:08:37.073Z,100451.42
2018-04-22T14:11:05.432Z,100439.59
2018-04-22T14:13:33.765Z,100445.88
2018-04-22T14:16:02.134Z,100435.30
2018-04-22T14:18:30.492Z,100437.64
2018-04-22T14:20:58.860Z,100431.17
2018-04-22T14:23:27.192Z,100433.16
2018-04-22T14:25:55.546Z,100427.55
2018-04-22T14:28:23.881Z,100423.99
2018-04-22T14:30:52.237Z,100414.89
2018-04-22T14:33:20.567Z,100419.38
2018-04-22T14:35:48.917Z,100411.14
2018-04-22T14:38:17.249Z,100408.16
2018-04-22T14:40:45.596Z,100404.86
2018-04-22T14:43:13.929Z,100404.82
2018-04-22T14:45:53.996Z,100402.44
2018-04-22T14:48:22.341Z,100398.23
2018-04-22T14:50:50.705Z,100396.98
2018-04-22T14:53:19.034Z,100393.05
2018-04-22T14:55:47.398Z,100385.45
2018-04-22T14:58:15.730Z,100383.10
2018-04-22T15:00:44.098Z,100383.87
2018-04-22T15:03:12.451Z,100380.28
2018-04-22T15:05:40.807Z,100376.14
2018-04-22T15:08:09.152Z,100375.50
2018-04-22T15:10:37.504Z,100377.02
2018-04-22T15:13:05.841Z,100374.89
2018-04-22T15:15:34.205Z,100383.27
2018-04-22T15:18:02.540Z,100383.55
2018-04-22T15:20:30.897Z,100389.55
2018-04-22T15:22:59.229Z,100393.19
2018-04-22T15:25:27.597Z,100396.61
2018-04-22T15:27:55.937Z,100396.89
2018-04-22T15:30:24.301Z,100400.33
2018-04-22T15:32:52.645Z,100399.64
2018-04-22T15:35:20.989Z,100400.08
2018-04-22T15:37:49.333Z,100396.08
2018-04-22T15:40:18.633Z,100391.73
2018-04-22T15:42:47.007Z,100391.73
2018-04-22T15:45:15.324Z,100382.80
2018-04-22T15:47:43.652Z,100382.95
2018-04-22T15:50:12.018Z,100373.89
2018-04-22T15:52:40.353Z,100379.97
2018-04-22T15:55:08.714Z,100381.35
2018-04-22T15:57:37.046Z,100382.64
2018-04-22T16:00:05.396Z,100383.27
2018-04-22T16:02:33.725Z,100380.66
2018-04-22T16:05:02.077Z,100381.40
2018-04-22T16:07:30.434Z,100375.61
2018-04-22T16:09:58.769Z,100374.93
2018-04-22T16:12:27.126Z,100362.89
2018-04-22T16:14:55.462Z,100361.12
2018-04-22T16:17:23.813Z,100346.44
2018-04-22T16:19:52.150Z,100330.20
2018-04-22T16:22:21.397Z,100323.02
2018-04-22T16:24:49.732Z,100312.38
2018-04-22T16:27:19.046Z,100326.47
2018-04-22T16:29:47.367Z,100324.53
2018-04-22T16:32:15.731Z,100327.12
2018-04-22T16:34:44.061Z,100333.04
2018-04-22T16:37:13.348Z,100326.41
2018-04-22T16:39:41.684Z,100328.35
2018-04-22T16:42:10.037Z,100324.00
2018-04-22T16:44:38.367Z,100324.59
2018-04-22T16:47:06.731Z,100323.02
2018-04-22T16:49:35.053Z,100321.55
2018-04-22T16:52:03.409Z,100313.09
2018-04-22T16:54:31.746Z,100303.53
2018-04-22T16:57:00.097Z,100300.44
2018-04-22T16:59:28.428Z,100291.31
2018-04-22T17:01:56.800Z,100287.18
2018-04-22T17:04:25.135Z,100285.22
2018-04-22T17:06:54.392Z,100284.96
2018-04-22T17:09:22.716Z,100274.62
2018-04-22T17:11:51.060Z,100274.52
2018-04-22T17:14:19.393Z,100268.25
2018-04-22T17:16:48.709Z,100271.38
2018-04-22T17:19:17.036Z,100272.31
2018-04-22T17:21:45.381Z,100278.33
2018-04-22T17:24:13.724Z,100283.08
2018-04-22T17:26:43.052Z,100290.24
2018-04-22T17:29:11.362Z,100281.52
2018-04-22T17:31:39.704Z,100291.30
2018-04-22T17:34:08.037Z,100292.20
2018-04-22T17:36:36.379Z,100302.50
2018-04-22T17:39:04.701Z,100305.89
2018-04-22T17:41:33.052Z,100310.12
2018-04-22T17:44:01.381Z,100317.83
2018-04-22T17:46:30.668Z,100324.03
2018-04-22T17:48:58.994Z,100322.39
2018-04-22T17:51:27.364Z,100330.89
2018-04-22T17:53:55.697Z,100331.87
2018-04-22T17:56:24.045Z,100337.78
2018-04-22T17:58:52.368Z,100341.88
2018-04-22T18:01:20.716Z,100341.64
2018-04-22T18:03:49.056Z,100342.39
2018-04-22T18:06:17.460Z,100339.27
2018-04-22T18:08:45.813Z,100341.55
2018-04-22T18:11:14.134Z,100342.42
2018-04-22T18:13:42.485Z,100340.63
2018-04-22T18:16:10.813Z,100344.58
2018-04-22T18:18:39.163Z,100347.27
2018-04-22T18:21:07.480Z,100350.23
2018-04-22T18:23:35.829Z,100351.94
2018-04-22T18:26:04.157Z,100347.91
2018-04-22T18:28:32.500Z,100335.95
2018-04-22T18:31:00.829Z,100333.80
2018-04-22T18:33:29.172Z,100332.70
2018-04-22T18:35:57.497Z,100340.11
2018-04-22T18:38:25.928Z,100344.29
2018-04-22T18:40:54.396Z,100349.11
2018-04-22T18:43:22.744Z,100356.94
2018-04-22T18:45:51.069Z,100356.27
2018-04-22T18:48:19.413Z,100370.43
2018-04-22T18:50:47.732Z,100375.39
2018-04-22T18:53:16.081Z,100375.52
2018-04-22T18:55:44.404Z,100377.92
2018-04-22T18:58:12.752Z,100380.58
2018-04-22T19:00:41.729Z,100381.88
2018-04-22T19:03:10.077Z,100377.97
2018-04-22T19:05:38.401Z,100379.53
2018-04-22T19:08:06.752Z,100370.67
2018-04-22T19:10:35.074Z,100365.87
2018-04-22T19:13:03.424Z,100372.51
2018-04-22T19:15:31.753Z,100362.48
2018-04-22T19:18:00.096Z,100364.95
2018-04-22T19:20:28.430Z,100362.59
2018-04-22T19:22:56.784Z,100360.41
2018-04-22T19:25:25.102Z,100358.84
2018-04-22T19:27:53.449Z,100356.05
2018-04-22T19:30:21.780Z,100360.92
2018-04-22T19:32:50.121Z,100370.98
2018-04-22T19:35:18.453Z,100376.03
2018-04-22T19:37:46.806Z,100390.80
2018-04-22T19:40:15.476Z,100389.66
2018-04-22T19:42:43.768Z,100398.14
2018-04-22T19:45:12.093Z,100373.00
2018-04-22T19:47:40.441Z,100343.84
2018-04-22T19:50:09.587Z,100357.34
2018-04-22T19:52:37.936Z,100375.88
2018-04-22T19:55:06.389Z,100373.95
2018-04-22T19:57:35.675Z,100368.16
2018-04-22T20:00:04.015Z,100359.05
2018-04-22T20:02:32.354Z,100365.09
2018-04-22T20:05:00.684Z,100369.94
2018-04-22T20:07:29.027Z,100377.19
2018-04-22T20:09:57.396Z,100405.53
2018-04-22T20:12:25.756Z,100582.58
2018-04-22T20:14:54.085Z,100593.87
2018-04-22T20:17:22.425Z,100608.53
2018-04-22T20:19:51.773Z,100609.11
2018-04-22T20:22:20.096Z,100607.39
2018-04-22T20:24:48.555Z,100586.86
2018-04-22T20:27:16.885Z,100604.05
2018-04-22T20:29:45.223Z,100602.69
2018-04-22T20:32:13.548Z,100606.81
2018-04-22T20:34:41.891Z,100596.20
2018-04-22T20:37:10.212Z,100596.44
2018-04-22T20:39:39.617Z,100597.63
2018-04-22T20:42:07.944Z,100582.91
2018-04-22T20:44:36.296Z,100582.30
2018-04-22T20:47:04.633Z,100519.92
2018-04-22T20:49:32.978Z,100456.69
2018-04-22T20:52:01.304Z,100488.03
2018-04-22T20:54:29.648Z,100491.20
2018-04-22T20:56:57.973Z,100496.26
2018-04-22T20:59:26.312Z,100503.56
2018-04-22T21:01:54.636Z,100513.42
2018-04-22T21:04:22.980Z,100508.61
2018-04-22T21:06:51.312Z,100506.53
2018-04-22T21:09:19.660Z,100492.23
2018-04-22T21:11:47.984Z,100501.64
2018-04-22T21:14:16.337Z,100490.48
2018-04-22T21:16:44.666Z,100483.06
2018-04-22T21:19:13.939Z,100483.72
2018-04-22T21:21:42.264Z,100481.15
2018-04-22T21:24:10.610Z,100481.07
2018-04-22T21:26:39.833Z,100473.06
2018-04-22T21:29:08.176Z,100465.88
2018-04-22T21:31:36.507Z,100469.80
2018-04-22T21:34:04.853Z,100472.43
2018-04-22T21:36:33.176Z,100469.31
2018-04-22T21:39:01.580Z,100464.88
2018-04-22T21:41:29.896Z,100464.00
2018-04-22T21:43:58.239Z,100456.05
2018-04-22T21:46:26.925Z,100464.23
2018-04-22T21:48:55.260Z,100461.98
2018-04-22T21:51:23.597Z,100463.87
2018-04-22T21:53:51.950Z,100465.73
2018-04-22T21:56:20.276Z,100462.95
2018-04-22T21:58:49.323Z,100468.05
2018-04-22T22:01:17.648Z,100475.09
2018-04-22T22:03:45.992Z,100476.55
2018-04-22T22:06:14.319Z,100474.98
2018-04-22T22:08:42.657Z,100470.02
2018-04-22T22:11:10.983Z,100467.47
2018-04-22T22:13:39.326Z,100466.59
2018-04-22T22:16:07.640Z,100462.31
2018-04-22T22:18:35.998Z,100470.77
2018-04-22T22:21:04.320Z,100473.34
2018-04-22T22:23:32.632Z,100478.97
2018-04-22T22:26:00.981Z,100470.19
2018-04-22T22:28:29.296Z,100462.65
2018-04-22T22:30:57.632Z,100468.63
2018-04-22T22:33:25.950Z,100471.14
2018-04-22T22:35:54.291Z,100469.63
2018-04-22T22:38:22.609Z,100474.05
2018-04-22T22:40:50.953Z,100478.01
2018-04-22T22:43:19.279Z,100472.15
2018-04-22T22:45:47.629Z,100470.74
2018-04-22T22:48:15.950Z,100470.39
2018-04-22T22:50:44.288Z,100469.80
2018-04-22T22:53:12.617Z,100463.84
2018-04-22T22:55:40.949Z,100468.09
2018-04-22T22:58:09.269Z,100465.84
2018-04-22T23:00:37.616Z,100462.84
2018-04-22T23:03:05.939Z,100461.29
2018-04-22T23:05:34.283Z,100463.46
2018-04-22T23:08:02.608Z,100462.89
2018-04-22T23:10:30.961Z,100459.63
2018-04-22T23:12:59.280Z,100456.58
2018-04-22T23:15:27.624Z,100456.45
2018-04-22T23:17:55.952Z,100453.02
2018-04-22T23:20:24.287Z,100451.64
2018-04-22T23:22:52.615Z,100452.83
2018-04-22T23:25:20.967Z,100455.70
2018-04-22T23:27:49.289Z,100451.59
2018-04-22T23:30:17.628Z,100453.33
2018-04-22T23:32:45.952Z,100440.32
2018-04-22T23:35:14.301Z,100435.59
2018-04-22T23:37:42.633Z,100444.36
2018-04-22T23:40:10.968Z,100436.52
2018-04-22T23:42:39.288Z,100432.01
2018-04-22T23:45:07.632Z,100445.21
2018-04-22T23:47:35.956Z,100433.90
2018-04-22T23:50:04.299Z,100430.63
2018-04-22T23:52:32.624Z,100426.96
2018-04-22T23:55:00.972Z,100431.02
2018-04-22T23:57:29.301Z,100429.04
2018-04-22T23:59:57.653Z,100429.55
